This is the latest recevied weather packets stored in our database for station/object LZ2SLL-13. If no packets are shown the sender has not sent any weather packets the latest 1 day(s).
| Time | Temp. | Humidity | Pressure | Rain* | Wind** | Luminosity | Snow |
|---|---|---|---|---|---|---|---|
| 1778090843 | 11.11° C | 89% | - | 0 mm | - | 0 W/m² | - |
| 1778090242 | 11.11° C | 89% | - | 0 mm | - | 0 W/m² | - |
| 1778088137 | 11.67° C | 86% | - | 0 mm | - | 1 W/m² | - |
| 1778087235 | 12.22° C | 86% | - | 0 mm | - | 8 W/m² | - |
| 1778086934 | 12.22° C | 86% | - | 0 mm | - | 11 W/m² | - |
| 1778086032 | 12.78° C | 82% | - | 0 mm | - | 21 W/m² | - |
| 1778085122 | 13.33° C | 77% | - | 0 mm | - | 33 W/m² | - |
| 1778084220 | 14.44° C | 71% | - | 0 mm | - | 63 W/m² | - |
| 1778083618 | 15° C | 71% | - | 0 mm | - | 82 W/m² | - |
| 1778083017 | 14.44° C | 68% | - | 0 mm | - | 104 W/m² | - |
| 1778082115 | 15° C | 69% | - | 0 mm | - | 142 W/m² | - |
| 1778080912 | 15.56° C | 65% | - | 0 mm | - | 72 W/m² | - |
| 1778080611 | 15.56° C | 64% | - | 0 mm | - | 222 W/m² | - |
| 1778079709 | 15° C | 67% | - | 0 mm | - | 275 W/m² | - |
| 1778076702 | 15.56° C | 62% | - | 0 mm | - | 460 W/m² | - |
| 1778076100 | 16.11° C | 58% | - | 0 mm | - | 496 W/m² | - |
| 1778075800 | 17.22° C | 56% | - | 0 mm | - | 519 W/m² | - |
| 1778075499 | 16.67° C | 58% | - | 0 mm | - | 536 W/m² | - |
| 1778075198 | 16.67° C | 58% | - | 0 mm | - | 551 W/m² | - |
| 1778073394 | 17.22° C | 55% | - | 0 mm | - | 653 W/m² | - |
| 1778072492 | 16.11° C | 56% | - | 0 mm | - | 703 W/m² | - |
| 1778072191 | 15.56° C | 58% | - | 0 mm | - | 720 W/m² | - |
| 1778071590 | 16.11° C | 60% | - | 0 mm | - | 750 W/m² | - |
| 1778070688 | 16.67° C | 55% | - | 0 mm | - | 791 W/m² | - |
| 1778069485 | 16.67° C | 56% | - | 0 mm | - | 842 W/m² | - |
* Rain latest hour (hover to see other rain measurements)
** Current wind speed in m/s (hover to see current wind gust speed)